Time;durP1;ratioP1;P1;durP2;ratioP2;P2;SDS_P1;SDS_P2;PMS_P1;PMS_P2;Temp;Humidity;BMP_temperature;BMP_pressure;BME280_temperature;BME280_humidity;BME280_pressure;Samples;Min_cycle;Max_cycle;Signal;HPM_P1;HPM_P2
2022/07/07 00:02:14;;;;;;;;;;;;;;;19.40;67.43;101133.78;1718236;81;27221;-61
2022/07/07 00:04:41;;;;;;;;;;;;;;;19.31;67.08;101136.25;1717965;82;25747;-60
2022/07/07 00:07:08;;;;;;;;;;;;;;;19.31;67.20;101140.34;1768978;79;26109;-60
2022/07/07 00:09:35;;;;;;;;;;;;;;;19.37;67.23;101136.38;1760978;79;25858;-60
2022/07/07 00:12:01;;;;;;;;;;;;;;;19.38;66.83;101144.02;1771829;79;27488;-61
2022/07/07 00:14:28;;;;;;;;;;;;;;;19.39;66.57;101147.09;1759893;79;25834;-61
2022/07/07 00:16:54;;;;;;;;;;;;;;;19.36;66.33;101139.30;1757940;79;25721;-61
2022/07/07 00:19:21;;;;;;;;;;;;;;;19.35;66.47;101142.52;1759120;79;26114;-61
2022/07/07 00:21:48;;;;;;;;;;;;;;;19.42;66.14;101141.77;1762141;79;25913;-61
2022/07/07 00:24:14;;;;;;;;;;;;;;;19.38;65.92;101141.30;1747736;80;28325;-61
2022/07/07 00:26:41;;;;;;;;;;;;;;;19.37;65.86;101137.73;1771502;79;25695;-61
2022/07/07 00:29:08;;;;;;;;;;;;;;;19.34;66.10;101150.38;1756724;79;25495;-61
2022/07/07 00:31:34;;;;;;;;;;;;;;;19.34;65.97;101144.91;1769448;80;26937;-60
2022/07/07 00:34:01;;;;;;;;;;;;;;;19.36;66.00;101151.57;1761685;79;25812;-60
2022/07/07 00:36:27;;;;;;;;;;;;;;;19.41;65.77;101145.56;1749072;79;27490;-61
2022/07/07 00:38:54;;;;;;;;;;;;;;;19.45;65.48;101149.59;1761642;79;25711;-61
2022/07/07 00:41:21;;;;;;;;;;;;;;;19.46;65.62;101151.30;1762392;79;25695;-61
2022/07/07 00:43:47;;;;;;;;;;;;;;;19.43;65.72;101138.87;1772421;79;26533;-61
2022/07/07 00:46:14;;;;;;;;;;;;;;;19.43;65.33;101139.38;1753998;79;25821;-61
2022/07/07 00:48:41;;;;;;;;;;;;;;;19.45;65.23;101138.19;1721757;82;27408;-61
2022/07/07 00:51:12;;;;;;;;;;;;;;;19.48;65.17;101137.78;1726031;82;25806;-61
2022/07/07 00:53:40;;;;;;;;;;;;;;;19.48;65.07;101139.69;1726209;81;25876;-61
2022/07/07 00:56:07;;;;;;;;;;;;;;;19.49;65.13;101134.03;1715528;80;26197;-60
2022/07/07 00:58:34;;;;;;;;;;;;;;;19.47;64.78;101139.34;1726822;80;25779;-61
2022/07/07 01:01:02;;;;;;;;;;;;;;;19.49;65.39;101133.20;1715763;81;27467;-61
2022/07/07 01:03:29;;;;;;;;;;;;;;;19.49;64.93;101134.56;1718647;81;25784;-61
2022/07/07 01:05:58;;;;;;;;;;;;;;;19.44;64.79;101136.98;1743705;80;25768;-60
2022/07/07 01:08:24;;;;;;;;;;;;;;;19.44;65.20;101133.75;1764942;79;26098;-61
2022/07/07 01:10:51;;;;;;;;;;;;;;;19.42;65.00;101139.04;1768057;79;25714;-60
2022/07/07 01:13:17;;;;;;;;;;;;;;;19.42;64.92;101141.77;1763546;79;27577;-61
2022/07/07 01:15:44;;;;;;;;;;;;;;;19.37;64.77;101136.38;1774742;79;26685;-60
2022/07/07 01:18:10;;;;;;;;;;;;;;;19.30;64.92;101133.20;1752068;79;25844;-61
2022/07/07 01:20:37;;;;;;;;;;;;;;;19.29;65.33;101132.86;1763170;79;26379;-60
2022/07/07 01:23:03;;;;;;;;;;;;;;;19.30;65.20;101138.15;1770157;79;25625;-61
2022/07/07 01:25:30;;;;;;;;;;;;;;;19.25;65.48;101140.56;1766392;79;27488;-60
2022/07/07 01:27:57;;;;;;;;;;;;;;;19.21;65.16;101140.62;1772425;79;25929;-60
2022/07/07 01:30:24;;;;;;;;;;;;;;;19.19;64.88;101144.04;1756381;80;25526;-60
2022/07/07 01:32:51;;;;;;;;;;;;;;;19.19;65.04;101153.06;1768581;79;26074;-60
2022/07/07 01:35:17;;;;;;;;;;;;;;;19.14;65.04;101154.67;1774122;79;25679;-60
2022/07/07 01:37:44;;;;;;;;;;;;;;;19.13;65.31;101155.70;1771067;79;27469;-61
2022/07/07 01:40:10;;;;;;;;;;;;;;;19.08;65.25;101152.16;1757924;79;25446;-60
2022/07/07 01:42:37;;;;;;;;;;;;;;;19.02;65.26;101155.59;1772450;79;25798;-60
2022/07/07 01:45:05;;;;;;;;;;;;;;;18.97;65.15;101149.32;1755989;79;26112;-61
2022/07/07 01:47:33;;;;;;;;;;;;;;;18.92;65.54;101149.88;1770803;79;25847;-61
2022/07/07 01:50:00;;;;;;;;;;;;;;;18.89;65.43;101152.95;1753520;79;27397;-60
2022/07/07 01:52:26;;;;;;;;;;;;;;;18.92;65.41;101153.09;1762584;79;25705;-60
2022/07/07 01:54:53;;;;;;;;;;;;;;;18.86;65.83;101157.39;1752182;79;25697;-61
2022/07/07 01:57:20;;;;;;;;;;;;;;;18.82;65.93;101162.89;1748983;79;26825;-60
2022/07/07 01:59:46;;;;;;;;;;;;;;;18.84;65.86;101159.97;1714864;81;26135;-61
2022/07/07 02:02:13;;;;;;;;;;;;;;;18.80;66.16;101162.71;1716805;81;27498;-59
2022/07/07 02:04:40;;;;;;;;;;;;;;;18.77;66.38;101166.66;1719413;81;25941;-60
2022/07/07 02:07:07;;;;;;;;;;;;;;;18.73;66.48;101180.33;1775709;79;25750;-60
2022/07/07 02:09:33;;;;;;;;;;;;;;;18.69;66.34;101184.42;1767851;79;28180;-60
2022/07/07 02:12:00;;;;;;;;;;;;;;;18.63;67.43;101191.44;1751794;79;25828;-61
2022/07/07 02:14:27;;;;;;;;;;;;;;;18.55;67.33;101199.66;1755931;79;27465;-60
2022/07/07 02:16:54;;;;;;;;;;;;;;;18.46;67.41;101194.78;1766329;79;25880;-60
2022/07/07 02:19:21;;;;;;;;;;;;;;;18.41;67.83;101208.06;1767817;79;25553;-60
2022/07/07 02:21:48;;;;;;;;;;;;;;;18.37;69.20;101214.91;1775786;79;26049;-60
2022/07/07 02:24:15;;;;;;;;;;;;;;;18.28;69.83;101215.44;1772101;79;25744;-60
2022/07/07 02:26:41;;;;;;;;;;;;;;;18.22;69.82;101216.98;1757267;79;27466;-61
2022/07/07 02:29:09;;;;;;;;;;;;;;;18.14;70.11;101216.53;1753200;79;25700;-60
2022/07/07 02:31:36;;;;;;;;;;;;;;;18.07;71.04;101222.31;1757772;79;25956;-60
2022/07/07 02:34:02;;;;;;;;;;;;;;;18.04;71.33;101220.45;1755831;79;26408;-61
2022/07/07 02:36:29;;;;;;;;;;;;;;;17.99;71.51;101217.77;1758973;79;25710;-61
2022/07/07 02:38:55;;;;;;;;;;;;;;;18.01;72.27;101216.73;1753821;79;27426;-61
2022/07/07 02:41:22;;;;;;;;;;;;;;;18.01;72.51;101214.02;1777283;79;25457;-60
2022/07/07 02:43:49;;;;;;;;;;;;;;;18.00;72.16;101211.79;1765145;79;25831;-61
2022/07/07 02:46:16;;;;;;;;;;;;;;;17.98;72.93;101202.94;1738337;80;26152;-60
2022/07/07 02:48:42;;;;;;;;;;;;;;;17.97;73.03;101201.27;1744624;80;25791;-63
2022/07/07 02:51:09;;;;;;;;;;;;;;;17.97;72.78;101194.47;1759067;79;28381;-60
2022/07/07 02:53:36;;;;;;;;;;;;;;;17.97;73.22;101199.38;1749184;80;25894;-60
2022/07/07 02:56:03;;;;;;;;;;;;;;;18.02;72.59;101205.66;1766073;79;26402;-61
2022/07/07 02:58:30;;;;;;;;;;;;;;;18.11;72.88;101210.55;1748537;79;26198;-61
2022/07/07 03:00:57;;;;;;;;;;;;;;;18.08;73.38;101224.02;1728539;81;25841;-60
2022/07/07 03:03:24;;;;;;;;;;;;;;;18.06;73.28;101222.00;1722970;81;27424;-61
2022/07/07 03:05:51;;;;;;;;;;;;;;;18.03;73.68;101220.11;1744009;80;25473;-60
2022/07/07 03:08:18;;;;;;;;;;;;;;;18.03;73.68;101218.75;1756595;79;25488;-61
2022/07/07 03:10:45;;;;;;;;;;;;;;;18.07;73.07;101218.75;1723679;81;26185;-60
2022/07/07 03:13:11;;;;;;;;;;;;;;;18.10;73.05;101212.44;1714553;79;25770;-61
2022/07/07 03:15:37;;;;;;;;;;;;;;;18.15;72.61;101205.95;1729705;81;28391;-60
2022/07/07 03:18:04;;;;;;;;;;;;;;;18.22;72.60;101205.27;1726877;81;25484;-60
2022/07/07 03:20:30;;;;;;;;;;;;;;;18.29;72.26;101204.89;1740304;81;25812;-60
2022/07/07 03:22:57;;;;;;;;;;;;;;;18.38;72.01;101201.11;1731668;81;26109;-60
2022/07/07 03:25:25;;;;;;;;;;;;;;;18.46;71.50;101199.70;1738158;82;25843;-60
2022/07/07 03:27:51;;;;;;;;;;;;;;;18.56;71.44;101195.38;1734782;81;27421;-60
2022/07/07 03:30:18;;;;;;;;;;;;;;;18.64;71.05;101199.95;1740391;78;25795;-60
2022/07/07 03:32:45;;;;;;;;;;;;;;;18.71;70.70;101206.37;1731789;80;25836;-60
2022/07/07 03:35:11;;;;;;;;;;;;;;;18.84;70.44;101209.03;1719590;81;26896;-60
2022/07/07 03:37:38;;;;;;;;;;;;;;;18.91;70.03;101203.19;1725913;81;25834;-61
2022/07/07 03:40:06;;;;;;;;;;;;;;;19.01;69.83;101202.47;1711457;81;27497;-62
2022/07/07 03:42:33;;;;;;;;;;;;;;;19.10;69.37;101196.42;1725786;81;26445;-61
2022/07/07 03:44:59;;;;;;;;;;;;;;;19.06;69.01;101213.66;1720757;81;26174;-60
2022/07/07 03:47:26;;;;;;;;;;;;;;;19.01;69.22;101205.20;1712996;82;26984;-61
2022/07/07 03:49:53;;;;;;;;;;;;;;;19.02;69.59;101208.26;1698179;81;25683;-61
2022/07/07 03:52:20;;;;;;;;;;;;;;;19.05;69.30;101195.61;1717280;82;29705;-61
2022/07/07 03:54:46;;;;;;;;;;;;;;;19.03;69.51;101203.14;1695148;82;25978;-60
2022/07/07 03:57:13;;;;;;;;;;;;;;;19.05;68.99;101202.95;1709731;81;25820;-60
2022/07/07 03:59:39;;;;;;;;;;;;;;;19.08;69.05;101205.33;1742965;80;26107;-60
2022/07/07 04:02:06;;;;;;;;;;;;;;;19.15;68.84;101198.60;1716516;81;25851;-61
2022/07/07 04:04:32;;;;;;;;;;;;;;;19.19;68.58;101199.42;1737803;81;27494;-60
2022/07/07 04:06:59;;;;;;;;;;;;;;;19.20;68.53;101203.84;1760523;80;26412;-60
2022/07/07 04:09:26;;;;;;;;;;;;;;;19.24;68.41;101207.92;1774257;77;25746;-60
2022/07/07 04:11:52;;;;;;;;;;;;;;;19.30;68.38;101212.30;1779388;79;26307;-60
2022/07/07 04:14:19;;;;;;;;;;;;;;;19.34;68.19;101215.84;1769995;79;25864;-61
2022/07/07 04:16:45;;;;;;;;;;;;;;;19.36;67.99;101222.50;1782775;79;28303;-61
2022/07/07 04:19:12;;;;;;;;;;;;;;;19.42;68.09;101223.61;1777739;79;26324;-59
2022/07/07 04:21:39;;;;;;;;;;;;;;;19.47;67.72;101227.48;1776726;79;25827;-61
2022/07/07 04:24:07;;;;;;;;;;;;;;;19.49;67.32;101234.98;1769184;78;26166;-60
2022/07/07 04:26:34;;;;;;;;;;;;;;;19.49;67.14;101236.87;1744622;79;25776;-60
2022/07/07 04:29:02;;;;;;;;;;;;;;;19.47;67.09;101247.12;1754621;80;27483;-60
2022/07/07 04:31:28;;;;;;;;;;;;;;;19.39;67.46;101258.94;1734920;80;27262;-60
2022/07/07 04:33:55;;;;;;;;;;;;;;;19.22;68.12;101267.78;1747316;80;25905;-60
2022/07/07 04:36:21;;;;;;;;;;;;;;;19.08;68.06;101270.77;1748370;80;26894;-60
2022/07/07 04:38:48;;;;;;;;;;;;;;;18.95;68.72;101272.72;1745718;80;25806;-60
2022/07/07 04:41:15;;;;;;;;;;;;;;;18.82;69.12;101269.19;1745477;81;27499;-60
2022/07/07 04:43:41;;;;;;;;;;;;;;;18.73;69.53;101272.45;1744195;80;25818;-60
2022/07/07 04:46:08;;;;;;;;;;;;;;;18.67;70.03;101269.58;1736081;80;25874;-60
2022/07/07 04:48:35;;;;;;;;;;;;;;;18.64;69.47;101259.89;1729660;82;26149;-60
2022/07/07 04:51:01;;;;;;;;;;;;;;;18.64;69.49;101253.08;1742950;81;25793;-60
2022/07/07 04:53:28;;;;;;;;;;;;;;;18.68;69.60;101257.16;1744240;81;27424;-60
2022/07/07 04:55:54;;;;;;;;;;;;;;;18.71;69.47;101242.33;1690693;83;25965;-60
2022/07/07 04:58:21;;;;;;;;;;;;;;;18.82;69.81;101238.34;1733612;81;25741;-60
2022/07/07 05:00:48;;;;;;;;;;;;;;;18.90;69.38;101241.02;1730794;81;26473;-60
2022/07/07 05:03:14;;;;;;;;;;;;;;;18.93;69.57;101228.42;1733871;81;25839;-59
2022/07/07 05:05:41;;;;;;;;;;;;;;;19.00;69.19;101224.47;1721434;81;27546;-60
2022/07/07 05:08:08;;;;;;;;;;;;;;;19.04;69.06;101225.30;1720578;81;25822;-60
2022/07/07 05:10:34;;;;;;;;;;;;;;;19.07;68.99;101221.34;1727942;81;25763;-60
2022/07/07 05:13:01;;;;;;;;;;;;;;;19.10;68.90;101222.33;1714855;82;26017;-60
2022/07/07 05:15:27;;;;;;;;;;;;;;;19.13;68.69;101222.50;1722660;81;25844;-60
2022/07/07 05:17:54;;;;;;;;;;;;;;;19.14;68.43;101222.84;1720034;82;27496;-60
2022/07/07 05:20:21;;;;;;;;;;;;;;;19.16;68.48;101231.66;1718986;80;25873;-60
2022/07/07 05:22:47;;;;;;;;;;;;;;;19.20;68.77;101247.48;1721758;81;25491;-60
2022/07/07 05:25:14;;;;;;;;;;;;;;;19.15;68.32;101249.05;1716629;81;26100;-60
2022/07/07 05:27:40;;;;;;;;;;;;;;;19.18;68.67;101244.61;1726485;81;25411;-60
2022/07/07 05:30:08;;;;;;;;;;;;;;;19.27;68.75;101249.50;1720853;81;27399;-60
2022/07/07 05:32:35;;;;;;;;;;;;;;;19.35;68.89;101250.27;1722366;81;26010;-59
2022/07/07 05:35:01;;;;;;;;;;;;;;;19.41;68.17;101243.77;1728007;80;25794;-59
2022/07/07 05:37:28;;;;;;;;;;;;;;;19.43;68.51;101237.09;1731203;81;26117;-60
2022/07/07 05:39:54;;;;;;;;;;;;;;;19.42;68.51;101235.89;1716974;80;26099;-62
2022/07/07 05:42:21;;;;;;;;;;;;;;;19.49;68.54;101230.05;1713129;81;27497;-61
2022/07/07 05:44:47;;;;;;;;;;;;;;;19.58;69.23;101228.09;1713213;79;25751;-60
2022/07/07 05:47:14;;;;;;;;;;;;;;;19.61;68.87;101223.10;1732188;81;25720;-61
2022/07/07 05:49:41;;;;;;;;;;;;;;;19.65;68.66;101230.40;1718112;80;26029;-61
2022/07/07 05:52:08;;;;;;;;;;;;;;;19.69;68.39;101233.11;1721580;80;26043;-61
2022/07/07 05:54:35;;;;;;;;;;;;;;;19.68;68.14;101230.88;1727689;80;27446;-61
2022/07/07 05:57:02;;;;;;;;;;;;;;;19.72;68.16;101231.38;1730683;82;25907;-61
2022/07/07 05:59:30;;;;;;;;;;;;;;;19.78;68.06;101231.13;1747035;81;25478;-61
2022/07/07 06:01:57;;;;;;;;;;;;;;;19.80;67.51;101233.16;1716395;81;26170;-61
2022/07/07 06:04:25;;;;;;;;;;;;;;;19.81;67.05;101235.69;1729901;81;25454;-61
2022/07/07 06:06:53;;;;;;;;;;;;;;;19.83;66.82;101248.64;1716133;80;27565;-61
2022/07/07 06:09:19;;;;;;;;;;;;;;;19.81;66.53;101246.61;1717114;81;25918;-61
2022/07/07 06:11:46;;;;;;;;;;;;;;;19.88;66.41;101244.03;1727143;80;25443;-61
2022/07/07 06:14:12;;;;;;;;;;;;;;;19.94;66.26;101241.94;1715082;82;27126;-61
2022/07/07 06:16:41;;;;;;;;;;;;;;;20.00;65.46;101248.50;1722205;80;25761;-61
2022/07/07 06:19:10;;;;;;;;;;;;;;;20.04;65.29;101250.37;1717063;81;28405;-61
2022/07/07 06:21:39;;;;;;;;;;;;;;;20.03;65.30;101254.14;1712948;81;25925;-61
2022/07/07 06:24:07;;;;;;;;;;;;;;;20.09;65.32;101252.84;1696106;83;25865;-61
2022/07/07 06:26:34;;;;;;;;;;;;;;;20.10;64.56;101246.35;1729728;81;26084;-61
2022/07/07 06:29:00;;;;;;;;;;;;;;;20.07;64.75;101252.21;1730399;81;25969;-61
2022/07/07 06:31:27;;;;;;;;;;;;;;;20.11;64.43;101252.67;1727023;80;27664;-61
2022/07/07 06:33:55;;;;;;;;;;;;;;;20.12;64.30;101255.74;1719917;81;25847;-61
2022/07/07 06:36:22;;;;;;;;;;;;;;;20.21;64.09;101261.45;1722895;81;25716;-61
2022/07/07 06:38:48;;;;;;;;;;;;;;;20.24;63.09;101262.95;1723790;80;26833;-61
2022/07/07 06:41:16;;;;;;;;;;;;;;;20.33;63.21;101257.72;1724252;81;25709;-61
2022/07/07 06:43:43;;;;;;;;;;;;;;;20.39;62.50;101257.48;1719549;81;27425;-60
2022/07/07 06:46:09;;;;;;;;;;;;;;;20.48;62.50;101261.81;1717394;80;26129;-60
2022/07/07 06:48:36;;;;;;;;;;;;;;;20.53;61.31;101257.14;1717172;80;25845;-61
2022/07/07 06:51:03;;;;;;;;;;;;;;;20.63;61.26;101260.40;1722388;81;26476;-61
2022/07/07 06:53:29;;;;;;;;;;;;;;;20.78;60.72;101257.67;1727987;81;26156;-61
2022/07/07 06:55:56;;;;;;;;;;;;;;;20.94;59.97;101254.70;1722448;81;27432;-60
2022/07/07 06:58:22;;;;;;;;;;;;;;;21.03;59.18;101257.31;1718092;81;25902;-60
2022/07/07 07:00:49;;;;;;;;;;;;;;;21.09;58.62;101250.55;1724031;80;25926;-61
2022/07/07 07:03:15;;;;;;;;;;;;;;;21.16;58.87;101247.89;1736797;81;26075;-61
2022/07/07 07:05:42;;;;;;;;;;;;;;;21.26;58.45;101252.52;1733788;79;25862;-60
2022/07/07 07:08:09;;;;;;;;;;;;;;;21.34;58.15;101257.53;1764344;79;27426;-60
2022/07/07 07:10:35;;;;;;;;;;;;;;;21.40;57.94;101260.34;1763242;79;25519;-60
2022/07/07 07:13:03;;;;;;;;;;;;;;;21.42;57.55;101268.34;1767404;79;25727;-60
2022/07/07 07:15:29;;;;;;;;;;;;;;;21.42;57.62;101263.73;1760524;79;26144;-60
2022/07/07 07:17:56;;;;;;;;;;;;;;;21.45;57.91;101265.23;1743472;80;25873;-60
2022/07/07 07:20:23;;;;;;;;;;;;;;;21.52;57.17;101263.89;1759930;79;27493;-60
2022/07/07 07:22:50;;;;;;;;;;;;;;;21.61;56.82;101258.64;1760265;79;25832;-60
2022/07/07 07:25:18;;;;;;;;;;;;;;;21.68;56.84;101262.80;1766716;79;25856;-60
2022/07/07 07:27:45;;;;;;;;;;;;;;;21.71;56.65;101260.52;1752852;79;26113;-61
2022/07/07 07:30:14;;;;;;;;;;;;;;;21.80;56.38;101272.69;1745545;79;25677;-60
2022/07/07 07:32:42;;;;;;;;;;;;;;;21.81;55.55;101266.17;1726769;80;27479;-60
2022/07/07 07:35:09;;;;;;;;;;;;;;;21.80;55.93;101267.21;1725872;79;26738;-59
2022/07/07 07:37:38;;;;;;;;;;;;;;;21.86;55.97;101278.23;1727821;80;25756;-61
2022/07/07 07:40:06;;;;;;;;;;;;;;;;;;1719312;81;26038;-60
2022/07/07 07:42:32;;;;;;;;;;;;;;;21.98;54.92;101276.31;1714995;81;25838;-61
2022/07/07 07:45:11;;;;;;;;;;;;;;;21.84;55.67;101276.20;1721051;81;27509;-61
2022/07/07 07:47:43;;;;;;;;;;;;;;;21.78;55.92;101272.90;1721948;80;25902;-61
2022/07/07 07:50:15;;;;;;;;;;;;;;;21.76;55.61;101274.98;1726555;80;25678;-61
2022/07/07 07:52:43;;;;;;;;;;;;;;;21.72;56.18;101271.80;1727910;80;26088;-61
2022/07/07 07:55:12;;;;;;;;;;;;;;;21.69;56.11;101269.98;1720785;81;25522;-61
2022/07/07 07:57:39;;;;;;;;;;;;;;;21.71;56.35;101269.27;1718977;81;28133;-61
2022/07/07 08:00:08;;;;;;;;;;;;;;;21.74;56.35;101264.73;1718403;81;25869;-62
2022/07/07 08:02:41;;;;;;;;;;;;;;;21.71;55.73;101272.00;1740445;80;25788;-61
2022/07/07 08:05:10;;;;;;;;;;;;;;;21.62;56.25;101263.61;1738725;80;26470;-61
2022/07/07 08:07:38;;;;;;;;;;;;;;;21.62;56.38;101266.34;1757589;79;26034;-61
2022/07/07 08:10:06;;;;;;;;;;;;;;;21.53;57.03;101265.09;1746139;79;27559;-61
2022/07/07 08:12:33;;;;;;;;;;;;;;;21.46;57.33;101265.55;1741510;80;25877;-61
2022/07/07 08:14:59;;;;;;;;;;;;;;;21.50;57.79;101267.37;1764252;79;25811;-63
2022/07/07 08:17:26;;;;;;;;;;;;;;;21.41;57.66;101262.55;1761023;79;26111;-61
2022/07/07 08:19:53;;;;;;;;;;;;;;;21.21;57.05;101263.72;1776614;79;26004;-60
2022/07/07 08:22:20;;;;;;;;;;;;;;;21.24;58.26;101269.65;1760351;79;27567;-60
2022/07/07 08:24:47;;;;;;;;;;;;;;;21.23;58.05;101258.38;1759020;79;25732;-60
2022/07/07 08:27:14;;;;;;;;;;;;;;;21.32;57.83;101266.45;1754817;79;25725;-60
2022/07/07 08:29:43;;;;;;;;;;;;;;;21.35;57.71;101268.81;1747286;80;26103;-61
2022/07/07 08:32:11;;;;;;;;;;;;;;;21.34;57.73;101264.37;1722383;80;26034;-60
2022/07/07 08:34:41;;;;;;;;;;;;;;;21.37;58.20;101275.77;1744015;79;27563;-61
2022/07/07 08:37:07;;;;;;;;;;;;;;;21.34;58.20;101280.26;1774622;79;25860;-61
2022/07/07 08:39:34;;;;;;;;;;;;;;;21.30;58.31;101280.84;1767679;79;25794;-61
2022/07/07 08:42:01;;;;;;;;;;;;;;;21.23;58.42;101284.91;1746293;79;26115;-61
2022/07/07 08:44:28;;;;;;;;;;;;;;;21.26;58.61;101281.25;1760902;80;25846;-61
2022/07/07 08:46:55;;;;;;;;;;;;;;;21.29;58.67;101281.91;1755927;79;27489;-61
2022/07/07 08:49:22;;;;;;;;;;;;;;;21.31;58.23;101283.41;1756542;79;26514;-61
2022/07/07 08:51:48;;;;;;;;;;;;;;;21.29;58.36;101281.37;1776040;79;25750;-61
2022/07/07 08:54:16;;;;;;;;;;;;;;;21.37;58.46;101292.20;1755375;79;26307;-61
2022/07/07 08:56:43;;;;;;;;;;;;;;;21.44;58.77;101296.38;1765082;78;25905;-61
2022/07/07 08:59:13;;;;;;;;;;;;;;;21.50;58.82;101296.11;1751149;80;28287;-61
2022/07/07 09:01:41;;;;;;;;;;;;;;;21.53;58.29;101295.20;1725370;81;26368;-62
2022/07/07 09:04:07;;;;;;;;;;;;;;;21.57;58.23;101297.85;1732765;81;25918;-63
2022/07/07 09:06:34;;;;;;;;;;;;;;;21.67;58.50;101299.44;1753488;80;26113;-62
2022/07/07 09:09:03;;;;;;;;;;;;;;;21.73;57.76;101302.78;1771132;79;25758;-62
2022/07/07 09:11:32;;;;;;;;;;;;;;;21.75;58.06;101297.09;1754234;79;27466;-62
2022/07/07 09:14:14;;;;;;;;;;;;;;;21.79;58.39;101300.61;1750907;79;26450;-60
2022/07/07 09:16:41;;;;;;;;;;;;;;;21.83;58.31;101293.67;1758116;79;25901;-61
2022/07/07 09:19:22;;;;;;;;;;;;;;;21.81;57.95;101295.79;1778912;79;26110;-61
2022/07/07 09:21:49;;;;;;;;;;;;;;;21.83;58.21;101296.41;1756549;79;25823;-61
2022/07/07 09:24:17;;;;;;;;;;;;;;;21.85;57.93;101296.23;1767166;79;27482;-61
2022/07/07 09:26:47;;;;;;;;;;;;;;;21.91;58.29;101298.70;1771159;79;25923;-61
2022/07/07 09:29:19;;;;;;;;;;;;;;;21.94;58.12;101295.55;1761280;79;25836;-61
2022/07/07 09:31:58;;;;;;;;;;;;;;;21.99;58.53;101295.28;1757980;79;26165;-61
2022/07/07 09:34:30;;;;;;;;;;;;;;;21.99;58.50;101293.08;1770394;79;25743;-61
2022/07/07 09:39:47;;;;;;;;;;;;;;;22.04;58.79;101298.79;1761713;79;25987;-60
2022/07/07 09:42:23;;;;;;;;;;;;;;;22.09;59.02;101292.72;1763491;79;25754;-61
2022/07/07 09:44:52;;;;;;;;;;;;;;;22.19;58.90;101295.41;1746110;80;26114;-60
2022/07/07 09:47:21;;;;;;;;;;;;;;;22.08;57.58;101302.84;1760182;79;25719;-60
2022/07/07 09:50:03;;;;;;;;;;;;;;;22.04;57.98;101302.39;1768684;79;27479;-60
2022/07/07 09:52:30;;;;;;;;;;;;;;;22.09;58.20;101298.19;1780291;79;25786;-60
2022/07/07 09:54:58;;;;;;;;;;;;;;;22.15;58.42;101299.62;1753237;79;25491;-60
2022/07/07 09:57:25;;;;;;;;;;;;;;;22.21;57.34;101300.71;1775440;79;26168;-60
2022/07/07 09:59:52;;;;;;;;;;;;;;;22.16;55.97;101298.57;1738636;81;25728;-60
2022/07/07 10:02:22;;;;;;;;;;;;;;;22.13;56.82;101312.66;1742055;81;27502;-60
2022/07/07 10:04:52;;;;;;;;;;;;;;;22.15;56.83;101306.97;1725329;80;25898;-61
2022/07/07 10:07:24;;;;;;;;;;;;;;;22.16;57.12;101305.93;1741678;79;25487;-59
2022/07/07 10:09:56;;;;;;;;;;;;;;;22.17;57.53;101307.12;1761898;79;26911;-61
2022/07/07 10:12:26;;;;;;;;;;;;;;;22.17;57.32;101308.48;1754467;80;26144;-60
2022/07/07 10:15:01;;;;;;;;;;;;;;;22.18;57.54;101307.45;1742420;79;27476;-61
2022/07/07 10:17:28;;;;;;;;;;;;;;;22.23;57.63;101300.50;1774794;79;26330;-60
2022/07/07 10:19:55;;;;;;;;;;;;;;;22.27;57.76;101295.78;1767912;79;25858;-60
2022/07/07 10:22:27;;;;;;;;;;;;;;;22.35;57.72;101301.64;1739807;79;26113;-60
2022/07/07 10:24:53;;;;;;;;;;;;;;;22.40;57.91;101308.75;1747202;79;25436;-60
2022/07/07 10:27:22;;;;;;;;;;;;;;;22.44;57.77;101312.80;1753989;80;28143;-60
2022/07/07 10:29:52;;;;;;;;;;;;;;;22.52;58.27;101313.14;1746158;79;25897;-61
2022/07/07 10:32:40;;;;;;;;;;;;;;;22.65;58.45;101316.47;1759472;79;25790;-60
2022/07/07 10:35:14;;;;;;;;;;;;;;;22.74;58.33;101311.14;1761656;79;26212;-60
2022/07/07 10:37:52;;;;;;;;;;;;;;;22.68;58.06;101316.08;1775746;80;25727;-60
2022/07/07 10:40:25;;;;;;;;;;;;;;;22.63;57.75;101318.05;1752752;79;27481;-59
2022/07/07 10:43:13;;;;;;;;;;;;;;;22.57;57.56;101316.64;1762575;79;25477;-60
2022/07/07 10:45:49;;;;;;;;;;;;;;;22.51;57.73;101306.83;1763325;79;25827;-60
2022/07/07 10:48:42;;;;;;;;;;;;;;;22.50;58.90;101302.39;1777192;79;26169;-61
2022/07/07 10:51:24;;;;;;;;;;;;;;;22.33;59.12;101300.45;1742755;80;25866;-60
2022/07/07 10:54:06;;;;;;;;;;;;;;;22.21;60.39;101293.86;1725534;80;27470;-61
2022/07/07 10:56:55;;;;;;;;;;;;;;;22.04;60.24;101295.55;1755396;80;25949;-61
2022/07/07 10:59:23;;;;;;;;;;;;;;;21.88;61.59;101284.36;1735300;81;25942;-60
2022/07/07 11:02:06;;;;;;;;;;;;;;;21.66;60.71;101289.02;1719103;81;26078;-61
2022/07/07 11:04:51;;;;;;;;;;;;;;;21.60;60.83;101287.59;1731390;82;25845;-60
2022/07/07 11:07:17;;;;;;;;;;;;;;;21.54;61.85;101290.55;1696103;82;27525;-61
2022/07/07 11:09:58;;;;;;;;;;;;;;;21.45;61.42;101293.97;1689097;82;25758;-60
2022/07/07 11:12:46;;;;;;;;;;;;;;;21.43;61.48;101294.67;1685729;82;25884;-61
2022/07/07 11:15:30;;;;;;;;;;;;;;;21.37;61.84;101299.56;1689513;82;26087;-61
2022/07/07 11:17:59;;;;;;;;;;;;;;;21.31;62.14;101303.06;1696076;82;25854;-61
2022/07/07 11:20:32;;;;;;;;;;;;;;;21.25;62.92;101305.55;1698693;82;27473;-61
2022/07/07 11:23:07;;;;;;;;;;;;;;;21.23;63.10;101311.73;1703486;82;26011;-61
2022/07/07 11:25:35;;;;;;;;;;;;;;;21.21;62.79;101311.06;1702294;82;25740;-59
2022/07/07 11:28:04;;;;;;;;;;;;;;;21.24;63.05;101312.59;1694134;81;26732;-60
2022/07/07 11:30:31;;;;;;;;;;;;;;;21.31;64.30;101301.70;1703789;82;25787;-62
2022/07/07 11:33:01;;;;;;;;;;;;;;;21.23;63.28;101298.05;1690470;81;47627;-62
2022/07/07 11:35:35;;;;;;;;;;;;;;;21.09;63.45;101289.38;1694267;83;25856;-61
2022/07/07 11:38:01;;;;;;;;;;;;;;;21.01;63.91;101298.55;1700021;83;25749;-60
2022/07/07 11:40:27;;;;;;;;;;;;;;;21.05;64.62;101297.63;1723962;82;26093;-60
2022/07/07 11:42:54;;;;;;;;;;;;;;;21.04;63.75;101300.91;1688368;83;25790;-60
2022/07/07 11:45:23;;;;;;;;;;;;;;;21.01;63.96;101305.91;1695104;81;28166;-60
2022/07/07 11:47:51;;;;;;;;;;;;;;;21.04;65.06;101296.80;1747323;81;25789;-62
2022/07/07 11:50:18;;;;;;;;;;;;;;;21.03;64.98;101286.03;1719737;80;25846;-60
2022/07/07 11:52:51;;;;;;;;;;;;;;;21.03;64.58;101265.52;1725906;81;26162;-61
2022/07/07 11:55:19;;;;;;;;;;;;;;;20.87;63.60;101258.42;1712445;80;25781;-59
2022/07/07 11:58:13;;;;;;;;;;;;;;;20.66;64.36;101247.73;1720724;81;27451;-60
2022/07/07 12:00:41;;;;;;;;;;;;;;;20.57;65.06;101255.20;1731933;80;25729;-61
2022/07/07 12:03:08;;;;;;;;;;;;;;;20.54;64.52;101265.14;1716284;83;25947;-61
2022/07/07 12:05:43;;;;;;;;;;;;;;;20.62;64.06;101271.86;1719578;82;26107;-61
2022/07/07 12:08:08;;;;;;;;;;;;;;;20.73;62.99;101276.52;1696689;83;26032;-61
2022/07/07 12:10:38;;;;;;;;;;;;;;;20.78;63.39;101283.64;1726275;82;27486;-61
2022/07/07 12:13:12;;;;;;;;;;;;;;;20.95;64.08;101288.38;1776357;80;25662;-60
2022/07/07 12:15:45;;;;;;;;;;;;;;;21.16;64.01;101287.56;1723810;80;25833;-61
2022/07/07 12:18:14;;;;;;;;;;;;;;;21.25;63.22;101290.50;1732786;81;26893;-60
2022/07/07 12:20:41;;;;;;;;;;;;;;;21.30;63.34;101287.69;1713600;81;26428;-60
2022/07/07 12:23:09;;;;;;;;;;;;;;;21.34;63.99;101287.09;1728300;81;28139;-60
2022/07/07 12:25:37;;;;;;;;;;;;;;;21.26;63.00;101293.56;1724035;80;25482;-60
2022/07/07 12:28:06;;;;;;;;;;;;;;;21.26;63.21;101301.77;1720543;81;25756;-61
2022/07/07 12:30:35;;;;;;;;;;;;;;;21.28;63.04;101304.30;1690857;81;26082;-60
2022/07/07 12:33:04;;;;;;;;;;;;;;;21.24;63.12;101293.44;1723146;80;25634;-60
2022/07/07 12:35:35;;;;;;;;;;;;;;;21.23;62.81;101285.73;1719448;81;27420;-60
2022/07/07 12:38:04;;;;;;;;;;;;;;;21.10;64.20;101275.50;1720070;80;25898;-60
2022/07/07 12:40:32;;;;;;;;;;;;;;;21.01;64.86;101281.30;1722348;81;25662;-60
2022/07/07 12:43:07;;;;;;;;;;;;;;;20.97;64.52;101278.11;1731029;81;26055;-60
2022/07/07 12:45:34;;;;;;;;;;;;;;;20.95;63.96;101287.02;1729015;80;25757;-61
2022/07/07 12:48:02;;;;;;;;;;;;;;;21.04;64.00;101270.81;1755739;80;27569;-61